EST,Max TemperatureF,Mean TemperatureF,Min TemperatureF,Max Dew PointF,MeanDew PointF,Min DewpointF,Max Humidity, Mean Humidity, Min Humidity, Max Sea Level PressureIn, Mean Sea Level PressureIn, Min Sea Level PressureIn, Max VisibilityMiles, Mean VisibilityMiles, Min VisibilityMiles, Max Wind SpeedMPH, Mean Wind SpeedMPH, Max Gust SpeedMPH,PrecipitationIn, CloudCover, Events, WindDirDegrees
2013-2-1,75,64,52,52,46,38,72,55,42,30.29,30.24,30.19,10,10,10,18,11,25,0.00,2,,360
2013-2-2,73,65,57,53,48,34,81,55,38,30.28,30.21,30.14,10,10,10,16,6,20,0.00,3,,33
2013-2-3,75,65,55,54,47,36,90,57,26,30.20,30.13,30.09,10,10,10,13,5,17,0.00,0,,330
2013-2-4,73,62,51,51,46,37,80,56,32,30.17,30.11,30.06,10,10,10,14,3,17,0.00,1,,86
2013-2-5,78,66,55,62,57,50,93,71,50,30.11,30.07,30.03,10,10,10,10,3,,0.00,3,,143
2013-2-6,80,70,61,63,61,59,97,73,50,30.13,30.09,30.05,10,10,10,13,4,,0.00,3,,103
2013-2-7,80,72,64,64,62,59,87,68,48,30.10,30.04,29.98,10,10,10,13,6,18,0.00,0,,146
2013-2-8,82,75,68,71,67,57,94,78,56,30.06,30.01,29.95,10,10,10,14,7,20,0.32,2,,236
2013-2-9,79,70,62,67,62,56,100,80,58,30.19,30.12,30.05,10,8,0,16,7,22,0.00,3,Fog,35
2013-2-10,78,74,69,63,60,57,71,64,52,30.27,30.22,30.17,10,10,10,22,12,26,0.00,4,,100
2013-2-11,78,73,68,63,62,61,78,69,58,30.24,30.19,30.14,10,10,10,15,11,21,0.00,3,,127
2013-2-12,82,72,63,68,65,61,93,75,52,30.14,30.08,30.01,10,10,10,13,5,21,0.00,1,,169
2013-2-13,84,76,69,71,69,67,97,79,59,30.04,30.00,29.94,10,10,10,16,7,22,0.00,3,,174
2013-2-14,84,74,63,71,67,61,94,82,51,30.04,29.97,29.89,10,10,10,22,7,30,0.60,5,Rain,301
2013-2-15,73,68,62,67,64,61,100,94,79,30.04,30.00,29.97,10,9,2,12,6,,0.81,8,Rain,1
2013-2-16,75,65,55,64,57,44,100,78,35,30.12,29.97,29.92,10,10,10,22,8,31,0.02,5,Rain,308
2013-2-17,59,52,46,43,26,17,66,39,22,30.33,30.25,30.12,10,10,10,24,14,32,0.00,0,,338
2013-2-18,69,58,46,54,44,35,63,55,43,30.34,30.28,30.23,10,10,10,17,11,28,0.00,4,,55
2013-2-19,78,69,60,65,60,52,93,70,57,30.21,30.17,30.12,10,10,10,15,8,21,0.00,3,,139
2013-2-20,79,72,66,65,64,58,94,81,50,30.14,30.09,30.04,10,10,10,16,4,,0.00,5,,10
2013-2-21,81,74,66,67,64,62,90,72,54,30.11,30.07,30.02,10,10,10,13,6,,0.00,1,,111
2013-2-22,82,77,72,70,68,66,88,76,60,30.12,30.08,30.04,10,10,10,18,11,23,0.00,4,,121
2013-2-23,84,78,73,71,69,68,93,76,57,30.06,30.01,29.95,10,10,10,16,11,23,0.00,3,,158
2013-2-24,88,80,71,73,70,61,100,83,40,30.02,29.97,29.93,10,10,10,12,4,,0.00,4,,194
2013-2-25,84,76,69,72,68,65,93,75,53,29.94,29.89,29.84,10,10,10,18,6,24,0.00,2,,156
2013-2-26,86,80,75,73,70,67,89,75,53,29.93,29.88,29.82,10,10,10,20,11,30,0.00,5,Rain,184
2013-2-27,77,72,66,72,67,62,96,89,64,29.99,29.95,29.89,10,10,5,10,5,,0.17,7,Rain,306
2013-2-28,73,67,61,64,54,47,93,67,44,30.03,29.98,29.94,10,10,10,15,8,22,0.00,5,,305